Time;durP1;ratioP1;P1;durP2;ratioP2;P2;SDS_P1;SDS_P2;PMS_P1;PMS_P2;Temp;Humidity;BMP_temperature;BMP_pressure;BME280_temperature;BME280_humidity;BME280_pressure;Samples;Min_cycle;Max_cycle;Signal;HPM_P1;HPM_P2
2023/01/08 00:02:10;;;;;;;3.35;2.63;;;;;;;11.94;69.38;98664.34;5033809;28;20564;-79
2023/01/08 00:04:36;;;;;;;3.08;2.40;;;;;;;11.94;69.83;98669.59;5033936;28;20294;-79
2023/01/08 00:07:03;;;;;;;2.40;1.95;;;;;;;11.95;70.07;98669.50;5033362;28;20100;-79
2023/01/08 00:09:30;;;;;;;3.15;2.08;;;;;;;11.92;69.77;98661.81;5033689;28;20045;-79
2023/01/08 00:11:56;;;;;;;2.97;2.20;;;;;;;11.95;70.16;98671.28;5033980;28;20059;-78
2023/01/08 00:14:22;;;;;;;2.55;2.25;;;;;;;11.94;70.17;98670.44;5033239;28;20413;-79
2023/01/08 00:16:50;;;;;;;2.28;2.08;;;;;;;11.94;70.27;98664.34;5033487;28;20136;-80
2023/01/08 00:21:47;;;;;;;3.42;2.10;;;;;;;11.94;70.26;98656.41;5000011;23;20500;-78
2023/01/08 00:24:14;;;;;;;4.68;2.30;;;;;;;11.95;70.41;98664.22;4993357;28;20054;-78
2023/01/08 00:26:40;;;;;;;4.82;2.33;;;;;;;11.95;70.33;98664.22;4992945;28;20214;-78
2023/01/08 00:29:07;;;;;;;2.75;2.30;;;;;;;11.94;70.22;98656.41;4993067;28;20062;-78
2023/01/08 00:31:33;;;;;;;4.22;2.60;;;;;;;11.92;70.02;98646.00;4992979;28;20050;-78
2023/01/08 00:34:00;;;;;;;2.17;1.95;;;;;;;11.93;70.23;98652.94;4993105;28;20050;-78
2023/01/08 00:36:26;;;;;;;4.88;2.13;;;;;;;11.93;70.43;98644.22;4992715;28;20563;-78
2023/01/08 00:38:52;;;;;;;3.05;2.00;;;;;;;11.92;70.54;98643.34;4992842;28;20646;-78
2023/01/08 00:41:19;;;;;;;3.35;2.17;;;;;;;11.93;70.58;98646.84;4992641;28;20073;-79
2023/01/08 00:43:45;;;;;;;2.53;2.33;;;;;;;11.92;70.47;98651.25;4993411;28;20085;-78
2023/01/08 00:46:11;;;;;;;3.17;2.30;;;;;;;11.92;70.45;98647.81;4992594;28;20077;-78
2023/01/08 00:48:38;;;;;;;2.80;2.25;;;;;;;11.92;70.63;98647.81;4992870;28;20481;-78
2023/01/08 00:51:06;;;;;;;2.30;2.10;;;;;;;11.92;70.48;98645.16;4992816;28;20044;-79
2023/01/08 00:53:34;;;;;;;3.50;2.63;;;;;;;11.92;70.68;98642.53;4993046;28;20069;-79
2023/01/08 00:56:02;;;;;;;3.78;2.15;;;;;;;11.92;70.57;98632.81;4992699;28;20101;-79
2023/01/08 00:58:29;;;;;;;3.45;2.30;;;;;;;11.92;70.69;98629.34;4992928;28;20053;-79
2023/01/08 01:00:55;;;;;;;2.70;2.30;;;;;;;11.91;70.68;98631.13;4992716;28;20456;-79
2023/01/08 01:03:22;;;;;;;6.13;2.05;;;;;;;11.92;70.92;98630.16;4992921;28;20078;-79
2023/01/08 01:05:48;;;;;;;2.70;2.20;;;;;;;11.92;70.88;98629.34;4992590;28;20528;-79
2023/01/08 01:08:15;;;;;;;3.10;2.00;;;;;;;11.94;70.92;98622.13;4975464;28;20054;-79
2023/01/08 01:10:42;;;;;;;3.65;2.30;;;;;;;11.93;71.15;98633.66;4992593;28;20054;-79
2023/01/08 01:13:09;;;;;;;2.28;2.08;;;;;;;11.92;71.03;98629.34;4992629;28;20054;-78
2023/01/08 01:15:36;;;;;;;3.45;2.25;;;;;;;11.92;71.04;98635.44;4992450;28;20054;-79
2023/01/08 01:18:02;;;;;;;3.30;2.20;;;;;;;11.91;71.11;98630.28;4992465;28;20054;-78
2023/01/08 01:20:28;;;;;;;3.45;2.38;;;;;;;11.92;71.21;98626.72;4992126;28;20567;-79
2023/01/08 01:22:55;;;;;;;2.20;2.00;;;;;;;11.91;71.14;98623.22;4984107;28;20074;-77
2023/01/08 01:25:21;;;;;;;3.33;2.20;;;;;;;11.90;71.24;98621.56;4983994;28;20066;-77
2023/01/08 01:27:48;;;;;;;3.80;2.40;;;;;;;11.92;71.38;98624.06;4985848;28;20050;-78
2023/01/08 01:30:14;;;;;;;5.00;2.20;;;;;;;11.92;71.39;98629.34;4991829;28;20503;-78
2023/01/08 01:32:41;;;;;;;2.45;2.25;;;;;;;11.92;71.39;98624.06;4974851;28;20050;-78
2023/01/08 01:35:07;;;;;;;2.63;2.38;;;;;;;11.92;71.20;98619.63;4992157;28;20054;-78
2023/01/08 01:37:34;;;;;;;3.58;2.38;;;;;;;11.92;71.04;98619.63;4992018;28;20050;-78
2023/01/08 01:40:00;;;;;;;2.95;2.38;;;;;;;11.94;71.31;98627.41;4992082;28;20051;-78
2023/01/08 01:42:39;;;;;;;2.42;2.03;;;;;;;11.90;70.73;98624.19;4992084;28;20464;-78
2023/01/08 01:45:30;;;;;;;2.20;1.98;;;;;;;11.90;69.78;98620.72;4992175;28;20057;-78
2023/01/08 01:48:01;;;;;;;2.20;2.00;;;;;;;11.92;70.88;98608.25;4992107;28;20046;-78
2023/01/08 01:50:50;;;;;;;4.85;2.17;;;;;;;11.88;69.25;98602.38;4991941;28;20060;-78
2023/01/08 01:53:30;;;;;;;3.17;2.28;;;;;;;11.90;70.85;98605.75;4992174;28;20133;-78
2023/01/08 01:55:57;;;;;;;2.72;2.05;;;;;;;11.91;71.28;98606.56;4991944;28;20054;-78
2023/01/08 01:58:27;;;;;;;2.53;1.90;;;;;;;11.90;70.80;98612.81;4991974;28;20063;-78
2023/01/08 02:00:56;;;;;;;2.60;2.08;;;;;;;11.90;71.25;98621.56;4991702;28;20047;-78
2023/01/08 02:03:24;;;;;;;2.88;2.00;;;;;;;11.90;71.20;98618.06;4971195;28;20051;-78
2023/01/08 02:06:15;;;;;;;2.25;1.85;;;;;;;11.88;70.50;98607.66;4988180;28;20062;-78
2023/01/08 02:08:54;;;;;;;2.38;1.90;;;;;;;11.88;70.03;98606.81;4991532;28;20050;-78
2023/01/08 02:11:24;;;;;;;1.90;1.70;;;;;;;11.90;71.14;98625.97;4991360;28;20050;-78
2023/01/08 02:14:23;;;;;;;4.55;1.85;;;;;;;11.86;70.39;98604.31;4991356;28;20109;-78
2023/01/08 02:16:58;;;;;;;2.50;1.80;;;;;;;11.91;70.99;98593.38;4991239;28;20484;-77
2023/01/08 02:19:27;;;;;;;2.42;1.83;;;;;;;11.90;71.79;98595.19;4991374;28;20482;-78
2023/01/08 02:22:29;;;;;;;2.42;1.52;;;;;;;11.85;70.39;98614.00;4999997;28;20053;-77
2023/01/08 02:25:26;;;;;;;2.63;1.80;;;;;;;11.85;69.31;98616.66;5010842;28;20084;-78
2023/01/08 02:27:55;;;;;;;2.13;1.73;;;;;;;11.88;71.49;98612.09;5011343;28;20404;-77
2023/01/08 02:30:23;;;;;;;1.92;1.55;;;;;;;11.89;71.50;98611.13;5010689;28;20096;-78
2023/01/08 02:32:50;;;;;;;3.72;1.63;;;;;;;11.89;71.77;98611.13;5010964;28;20049;-78
2023/01/08 02:35:16;;;;;;;2.55;2.00;;;;;;;11.88;71.51;98609.47;5010864;28;20054;-78
2023/01/08 02:37:43;;;;;;;3.38;1.98;;;;;;;11.89;71.70;98604.03;5009914;28;20054;-77
2023/01/08 02:40:18;;;;;;;2.10;1.80;;;;;;;11.88;70.37;98609.47;5011013;28;20061;-78
2023/01/08 02:43:13;;;;;;;3.15;2.03;;;;;;;11.88;70.16;98604.19;4993104;28;20046;-78
2023/01/08 02:45:47;;;;;;;3.92;2.15;;;;;;;11.89;70.66;98605.84;4993070;28;20105;-78
2023/01/08 02:48:39;;;;;;;3.22;1.90;;;;;;;11.86;69.41;98601.66;5010391;28;20054;-78
2023/01/08 02:51:09;;;;;;;1.92;1.65;;;;;;;11.91;71.41;98601.28;4992855;28;20124;-78
2023/01/08 02:53:43;;;;;;;2.97;1.73;;;;;;;11.89;70.52;98600.59;5010712;28;20104;-78
2023/01/08 02:56:18;;;;;;;3.75;2.10;;;;;;;11.90;71.10;98589.91;5010579;28;20054;-78
2023/01/08 02:58:47;;;;;;;3.03;1.98;;;;;;;11.92;71.57;98576.63;5010429;28;20054;-79
2023/01/08 03:01:15;;;;;;;4.13;2.13;;;;;;;11.92;71.62;98577.44;5010473;28;20499;-79
2023/01/08 03:03:48;;;;;;;4.70;2.00;;;;;;;11.93;71.01;98575.63;4992908;28;20054;-79
2023/01/08 03:06:18;;;;;;;3.40;1.90;;;;;;;11.94;71.18;98574.66;5010457;28;20427;-78
2023/01/08 03:08:50;;;;;;;3.28;1.90;;;;;;;11.93;70.50;98573.00;5010217;28;20054;-79
2023/01/08 03:11:20;;;;;;;3.30;1.80;;;;;;;11.93;71.03;98554.53;5010168;28;20112;-79
2023/01/08 03:13:52;;;;;;;2.25;1.77;;;;;;;11.91;70.73;98556.44;5010275;28;20373;-79
2023/01/08 03:16:38;;;;;;;3.17;2.00;;;;;;;11.88;70.19;98560.19;5010088;28;20050;-78
2023/01/08 03:19:11;;;;;;;3.22;1.90;;;;;;;11.90;70.78;98554.78;5010325;28;20046;-78
2023/01/08 03:21:41;;;;;;;2.33;1.70;;;;;;;11.90;71.46;98555.63;5010052;28;20056;-78
2023/01/08 03:24:11;;;;;;;2.03;1.83;;;;;;;11.90;71.25;98549.50;5010103;28;20145;-78
2023/01/08 03:26:40;;;;;;;3.35;1.88;;;;;;;11.89;71.48;98547.84;5009798;28;20124;-78
2023/01/08 03:29:11;;;;;;;3.58;2.10;;;;;;;11.86;71.08;98536.56;5010115;28;20085;-78
2023/01/08 03:31:39;;;;;;;2.45;1.90;;;;;;;11.87;71.40;98545.34;5010151;28;20111;-78
2023/01/08 03:34:07;;;;;;;2.63;1.90;;;;;;;11.86;71.57;98533.94;5010010;28;20053;-78
2023/01/08 03:36:36;;;;;;;1.92;1.73;;;;;;;11.84;71.28;98533.25;4992376;28;20057;-78
2023/01/08 03:39:15;;;;;;;4.10;1.70;;;;;;;11.81;70.44;98519.47;5009879;28;20089;-78
2023/01/08 03:41:41;;;;;;;3.75;2.10;;;;;;;11.84;71.62;98524.47;5009916;28;20451;-78
2023/01/08 03:44:08;;;;;;;3.75;1.90;;;;;;;11.83;71.82;98526.31;5009825;28;20564;-79
2023/01/08 03:46:40;;;;;;;3.72;1.77;;;;;;;11.82;71.07;98521.97;5009813;28;20216;-78
2023/01/08 03:49:07;;;;;;;3.63;2.42;;;;;;;11.84;71.74;98516.56;5011950;28;20062;-79
2023/01/08 03:51:42;;;;;;;3.88;2.20;;;;;;;11.81;70.49;98530.03;5013361;28;20428;-78
2023/01/08 03:54:16;;;;;;;2.78;1.95;;;;;;;11.81;70.56;98514.22;5013675;28;20046;-78
2023/01/08 03:56:43;;;;;;;2.50;1.92;;;;;;;11.82;71.60;98513.25;4995941;28;20088;-79
2023/01/08 03:59:11;;;;;;;2.95;1.73;;;;;;;11.81;71.81;98507.13;5013454;28;20050;-78
2023/01/08 04:01:38;;;;;;;4.65;1.77;;;;;;;11.82;71.88;98515.88;5013476;28;20042;-78
2023/01/08 04:04:06;;;;;;;4.03;1.83;;;;;;;11.80;71.83;98508.09;5013225;28;20064;-78
2023/01/08 04:06:32;;;;;;;2.40;1.70;;;;;;;11.81;71.83;98511.56;5013204;28;20050;-78
2023/01/08 04:08:59;;;;;;;6.55;2.30;;;;;;;11.81;72.10;98506.31;5013430;28;20045;-78
2023/01/08 04:11:25;;;;;;;4.53;1.48;;;;;;;11.82;71.99;98521.97;5013171;28;20089;-78
2023/01/08 04:13:52;;;;;;;1.98;1.70;;;;;;;11.82;72.13;98514.06;5012961;28;20424;-78
2023/01/08 04:16:18;;;;;;;1.98;1.52;;;;;;;11.83;72.47;98502.56;5012802;28;20103;-78
2023/01/08 04:18:44;;;;;;;2.63;1.80;;;;;;;11.84;72.18;98493.69;5012682;28;20058;-78
2023/01/08 04:21:11;;;;;;;3.55;1.80;;;;;;;11.88;72.21;98496.09;5012832;28;20108;-78
2023/01/08 04:23:37;;;;;;;2.22;1.80;;;;;;;11.88;72.22;98504.00;5012881;28;20492;-78
2023/01/08 04:26:05;;;;;;;3.33;1.98;;;;;;;11.89;72.03;98503.03;5012838;28;20401;-78
2023/01/08 04:28:32;;;;;;;2.00;1.50;;;;;;;11.90;72.22;98508.16;5012754;28;20074;-79
2023/01/08 04:30:58;;;;;;;2.00;1.70;;;;;;;11.89;72.01;98503.84;5012671;28;20129;-78
2023/01/08 04:33:24;;;;;;;4.38;2.00;;;;;;;11.90;71.96;98502.91;5013207;28;20050;-78
2023/01/08 04:35:51;;;;;;;3.10;1.83;;;;;;;11.91;72.14;98498.44;5012802;28;20163;-78
2023/01/08 04:38:17;;;;;;;3.40;1.95;;;;;;;11.92;72.09;98494.88;5012785;28;20096;-78
2023/01/08 04:40:44;;;;;;;4.07;1.92;;;;;;;11.91;71.91;98482.63;5012485;28;20456;-78
2023/01/08 04:43:10;;;;;;;2.90;1.85;;;;;;;11.91;71.84;98493.16;4995073;28;20501;-78
2023/01/08 04:45:36;;;;;;;2.75;1.75;;;;;;;11.92;72.00;98484.31;5012906;28;20508;-78
2023/01/08 04:48:03;;;;;;;3.47;1.63;;;;;;;11.92;72.10;98484.31;5012363;28;20050;-78
2023/01/08 04:50:29;;;;;;;2.25;1.90;;;;;;;11.92;72.17;98490.41;5012474;28;20468;-78
2023/01/08 04:52:58;;;;;;;3.25;1.88;;;;;;;11.92;71.73;98476.41;5012465;28;20328;-78
2023/01/08 04:55:24;;;;;;;3.78;1.80;;;;;;;11.94;71.85;98479.72;4994822;28;20088;-78
2023/01/08 04:57:50;;;;;;;2.58;1.48;;;;;;;11.93;72.21;98481.53;5012157;28;20077;-78
2023/01/08 05:00:17;;;;;;;3.22;1.90;;;;;;;11.94;72.23;98477.94;5009607;28;20050;-79
2023/01/08 05:02:43;;;;;;;11.65;2.13;;;;;;;11.94;72.06;98474.47;4992527;28;20174;-78
2023/01/08 05:05:10;;;;;;;2.85;1.70;;;;;;;11.95;72.07;98457.66;4992662;28;20046;-78
2023/01/08 05:07:36;;;;;;;8.02;2.05;;;;;;;11.95;71.94;98462.94;4975137;28;20512;-78
2023/01/08 05:10:03;;;;;;;2.80;1.60;;;;;;;11.95;72.04;98458.53;4992546;28;20547;-78
2023/01/08 05:12:29;;;;;;;4.07;2.13;;;;;;;11.96;72.02;98460.19;4975220;28;20058;-78
2023/01/08 05:14:56;;;;;;;1.73;1.40;;;;;;;11.98;72.42;98457.41;4992402;28;20077;-79
2023/01/08 05:17:22;;;;;;;3.60;1.85;;;;;;;11.95;72.15;98455.03;4992638;28;20058;-79
2023/01/08 05:19:48;;;;;;;3.90;2.03;;;;;;;11.96;71.90;98460.19;4992477;28;20120;-78
2023/01/08 05:22:15;;;;;;;2.33;1.70;;;;;;;11.96;72.06;98454.91;4975235;28;20042;-78
2023/01/08 05:24:41;;;;;;;4.25;2.00;;;;;;;11.95;71.80;98445.34;4992276;28;20050;-78
2023/01/08 05:27:07;;;;;;;2.67;1.83;;;;;;;11.97;71.96;98445.22;4992084;28;20074;-79
2023/01/08 05:29:34;;;;;;;1.88;1.60;;;;;;;11.98;72.07;98457.41;4974764;28;20109;-78
2023/01/08 05:32:00;;;;;;;3.88;1.92;;;;;;;11.98;71.82;98444.22;4992257;28;20050;-78
2023/01/08 05:34:26;;;;;;;3.38;2.03;;;;;;;11.97;72.04;98435.47;4992172;28;20077;-78
2023/01/08 05:36:53;;;;;;;2.70;1.90;;;;;;;11.98;71.91;98441.59;4974539;28;20054;-79
2023/01/08 05:39:19;;;;;;;5.40;1.88;;;;;;;11.98;71.81;98431.91;4991985;28;20050;-78
2023/01/08 05:41:46;;;;;;;3.72;1.95;;;;;;;11.98;71.79;98433.69;4991758;28;20051;-78
2023/01/08 05:44:12;;;;;;;4.68;2.10;;;;;;;11.97;71.73;98424.13;4991810;28;20050;-78
2023/01/08 05:46:38;;;;;;;2.33;1.50;;;;;;;11.98;71.94;98425.78;5004493;28;20077;-78
2023/01/08 05:49:05;;;;;;;2.47;1.75;;;;;;;11.99;71.86;98435.34;5011654;28;20058;-78
2023/01/08 05:51:31;;;;;;;3.65;1.70;;;;;;;11.98;71.88;98437.16;4993859;28;20081;-78
2023/01/08 05:53:58;;;;;;;3.95;2.10;;;;;;;11.95;71.82;98429.50;5011338;28;20412;-79
2023/01/08 05:56:24;;;;;;;2.38;1.73;;;;;;;11.96;71.92;98438.28;5010887;28;20074;-78
2023/01/08 05:58:52;;;;;;;3.47;1.80;;;;;;;11.95;71.58;98433.94;4955004;28;20059;-79
2023/01/08 06:01:19;;;;;;;3.30;1.85;;;;;;;11.94;71.87;98435.75;4972293;28;20105;-79
2023/01/08 06:03:45;;;;;;;2.75;1.88;;;;;;;11.93;72.00;98439.34;4971043;28;20050;-79
2023/01/08 06:06:13;;;;;;;1.50;1.40;;;;;;;11.93;72.24;98444.59;4971955;28;20058;-78
2023/01/08 06:08:39;;;;;;;2.22;1.98;;;;;;;11.91;72.38;98446.56;4971905;28;20093;-78
2023/01/08 06:11:07;;;;;;;2.88;1.75;;;;;;;11.91;72.29;98474.72;4971591;28;20134;-78
2023/01/08 06:13:36;;;;;;;3.28;1.67;;;;;;;11.90;72.41;98470.41;4971837;28;20572;-78
2023/01/08 06:16:03;;;;;;;3.88;1.60;;;;;;;11.85;72.16;98479.53;4971783;28;20419;-78
2023/01/08 06:18:30;;;;;;;3.95;1.50;;;;;;;11.83;72.21;98484.13;4971626;28;20497;-78
2023/01/08 12:24:15;;;;;;;13.45;1.80;;;;;;;13.48;66.44;98296.59;4972719;28;20061;-79
2023/01/08 12:27:06;;;;;;;8.75;1.80;;;;;;;13.28;63.72;98283.41;4972924;28;20059;-80
2023/01/08 12:29:44;;;;;;;4.57;1.33;;;;;;;13.10;62.44;98283.28;4972821;28;20054;-80
2023/01/08 12:32:13;;;;;;;8.68;2.00;;;;;;;13.01;65.52;98279.69;4973997;28;20057;-80
2023/01/08 12:35:02;;;;;;;12.57;2.03;;;;;;;12.88;64.89;98278.16;4974375;28;20058;-81
2023/01/08 12:37:38;;;;;;;7.80;1.52;;;;;;;12.84;65.56;98271.50;4973429;28;20070;-80
2023/01/08 12:40:21;;;;;;;7.07;1.80;;;;;;;12.77;64.82;98267.72;4973564;28;20050;-80
2023/01/08 12:42:47;;;;;;;7.13;1.47;;;;;;;12.80;69.00;98256.91;4974217;28;20058;-79
2023/01/08 12:45:28;;;;;;;6.15;1.88;;;;;;;12.77;68.17;98260.66;4972612;28;20134;-79
2023/01/08 12:48:13;;;;;;;8.95;1.83;;;;;;;12.72;65.32;98257.59;4965475;28;20412;-79
2023/01/08 12:51:18;;;;;;;5.15;1.83;;;;;;;12.73;65.66;98250.50;4973340;28;20499;-79
2023/01/08 12:53:50;;;;;;;6.32;1.70;;;;;;;12.75;66.88;98245.91;4973876;28;20190;-79
2023/01/08 12:56:26;;;;;;;10.45;2.33;;;;;;;12.76;66.61;98240.47;4973399;28;20062;-79
2023/01/08 12:59:00;;;;;;;9.02;1.52;;;;;;;12.74;66.36;98226.59;4956843;28;20113;-79
2023/01/08 13:01:46;;;;;;;4.47;1.90;;;;;;;12.71;66.55;98226.88;4972805;28;20059;-79
2023/01/08 13:04:13;;;;;;;6.00;1.70;;;;;;;12.75;68.78;98216.88;4973735;28;20106;-79
2023/01/08 13:07:02;;;;;;;5.10;1.33;;;;;;;12.69;66.53;98210.34;4973291;28;20067;-80
2023/01/08 13:09:30;;;;;;;5.03;1.27;;;;;;;12.71;66.76;98215.50;4973438;28;20445;-79
2023/01/08 13:11:59;;;;;;;8.10;1.73;;;;;;;12.70;67.29;98209.34;4973393;28;20063;-79
2023/01/08 13:14:26;;;;;;;6.18;1.52;;;;;;;12.69;67.26;98201.56;4973476;28;20145;-79
2023/01/08 13:17:03;;;;;;;4.45;1.15;;;;;;;12.63;65.33;98198.53;4971934;28;20090;-79
2023/01/08 13:19:42;;;;;;;5.50;1.60;;;;;;;12.60;64.46;98197.97;4973859;28;20058;-79
2023/01/08 13:22:23;;;;;;;5.85;1.63;;;;;;;12.57;65.11;98193.81;4971255;28;20463;-78
2023/01/08 13:24:49;;;;;;;7.10;1.77;;;;;;;12.59;67.31;98194.50;4973082;28;20109;-79
2023/01/08 13:27:16;;;;;;;5.03;1.48;;;;;;;12.57;67.61;98187.69;4973275;28;20446;-80
2023/01/08 13:29:47;;;;;;;4.55;1.20;;;;;;;12.54;67.50;98187.97;4971975;28;20070;-80
2023/01/08 13:32:42;;;;;;;6.45;1.52;;;;;;;12.46;65.99;98196.59;4972975;28;20106;-81
2023/01/08 13:35:15;;;;;;;5.22;1.10;;;;;;;12.43;65.69;98194.22;4973026;28;20054;-78
2023/01/08 13:37:43;;;;;;;5.00;1.20;;;;;;;12.37;67.33;98193.81;4973113;28;20090;-81
2023/01/08 13:40:35;;;;;;;4.65;1.10;;;;;;;12.25;65.28;98187.81;4971688;28;20527;-79
2023/01/08 13:43:05;;;;;;;4.20;1.20;;;;;;;12.21;67.16;98182.94;4973123;28;20059;-81
2023/01/08 13:45:32;;;;;;;8.20;1.48;;;;;;;12.11;68.02;98183.78;4973033;28;20077;-79
2023/01/08 13:47:59;;;;;;;4.03;1.20;;;;;;;12.02;68.38;98181.06;4972576;28;20063;-78
2023/01/08 13:50:28;;;;;;;3.30;1.40;;;;;;;11.92;68.69;98173.16;4972622;28;20070;-79
2023/01/08 13:53:02;;;;;;;6.07;1.25;;;;;;;11.80;68.97;98175.91;4972287;28;20500;-80
2023/01/08 13:55:34;;;;;;;3.15;1.20;;;;;;;11.73;69.21;98174.78;4971632;28;20113;-79
2023/01/08 13:58:06;;;;;;;3.88;1.10;;;;;;;11.65;69.72;98171.97;4972663;28;20415;-79
2023/01/08 14:00:42;;;;;;;3.22;1.20;;;;;;;11.56;69.96;98184.16;4972762;28;20145;-80
2023/01/08 14:03:26;;;;;;;7.00;1.10;;;;;;;11.48;69.82;98166.38;4972980;28;20066;-80
2023/01/08 14:06:04;;;;;;;3.80;1.15;;;;;;;11.43;70.64;98153.59;4972698;28;20084;-79
2023/01/08 14:08:31;;;;;;;4.43;1.48;;;;;;;11.43;71.49;98158.03;4972549;28;20058;-79
2023/01/08 14:10:59;;;;;;;5.45;2.10;;;;;;;11.41;71.72;98157.34;4972498;28;20125;-80
2023/01/08 14:13:29;;;;;;;5.68;1.52;;;;;;;11.38;71.67;98152.31;4972234;28;20055;-80
2023/01/08 14:16:04;;;;;;;6.18;1.77;;;;;;;11.38;71.84;98147.06;4970851;28;20444;-80
2023/01/08 14:18:31;;;;;;;6.32;1.48;;;;;;;11.40;72.37;98145.13;4968423;28;20069;-79
2023/01/08 14:20:58;;;;;;;3.95;1.30;;;;;;;11.41;72.54;98141.53;4952913;28;20058;-79
2023/01/08 14:23:31;;;;;;;3.65;1.20;;;;;;;11.43;71.43;98131.69;4962559;28;20059;-80
2023/01/08 14:26:07;;;;;;;2.78;1.00;;;;;;;11.56;73.12;98142.81;4952072;29;20515;-80
2023/01/08 14:28:34;;;;;;;4.55;0.90;;;;;;;11.78;75.38;98143.56;4951714;28;20112;-80
2023/01/08 14:31:01;;;;;;;1.30;0.43;;;;;;;12.03;75.02;98132.66;4952767;29;20062;-80
2023/01/08 14:33:36;;;;;;;1.27;0.68;;;;;;;12.28;69.96;98143.66;4953188;28;20155;-79
2023/01/08 14:36:06;;;;;;;1.10;0.50;;;;;;;12.52;70.32;98143.22;4953527;28;20063;-80
2023/01/08 14:38:32;;;;;;;2.10;0.70;;;;;;;12.66;69.16;98149.06;4965462;28;20059;-80
2023/01/08 14:41:01;;;;;;;1.55;0.40;;;;;;;12.69;66.36;98140.84;4947193;28;20051;-80
2023/01/08 14:43:32;;;;;;;1.65;0.60;;;;;;;12.66;65.60;98144.63;4972070;28;20058;-80
2023/01/08 14:46:01;;;;;;;1.50;0.65;;;;;;;12.61;66.83;98149.50;4971713;28;20487;-80
2023/01/08 14:48:42;;;;;;;1.48;0.70;;;;;;;12.51;63.74;98147.69;4970677;28;20507;-80
2023/01/08 14:51:12;;;;;;;2.50;0.65;;;;;;;12.50;66.16;98145.19;4971847;28;20097;-80
2023/01/08 14:53:47;;;;;;;2.20;0.80;;;;;;;12.48;65.52;98153.25;4972018;28;20113;-80
2023/01/08 14:56:23;;;;;;;0.93;0.52;;;;;;;12.43;64.57;98138.81;4971762;28;20054;-80
2023/01/08 14:58:50;;;;;;;0.85;0.50;;;;;;;12.38;66.11;98145.31;4971755;28;20092;-80
2023/01/08 15:01:22;;;;;;;2.20;1.10;;;;;;;12.25;64.98;98148.25;4964866;28;20070;-80
2023/01/08 15:03:51;;;;;;;2.00;0.93;;;;;;;12.16;66.27;98148.25;4970909;28;20055;-80
2023/01/08 15:06:26;;;;;;;2.28;0.90;;;;;;;11.99;64.80;98146.13;4954545;28;20253;-79
2023/01/08 15:08:53;;;;;;;3.22;0.80;;;;;;;11.90;66.73;98146.09;4971697;28;20098;-79
2023/01/08 15:11:23;;;;;;;1.88;0.90;;;;;;;11.73;66.20;98146.63;4971519;28;20055;-80
2023/01/08 15:13:51;;;;;;;2.00;0.60;;;;;;;11.63;67.06;98150.19;4971519;28;20058;-79
2023/01/08 15:16:39;;;;;;;3.17;0.63;;;;;;;11.48;66.36;98140.03;4954251;28;20062;-80
2023/01/08 15:19:09;;;;;;;3.53;0.80;;;;;;;11.39;67.83;98152.19;4954428;28;20059;-79
2023/01/08 15:21:36;;;;;;;2.00;0.70;;;;;;;11.28;67.97;98145.22;4971514;28;20055;-79
2023/01/08 15:24:05;;;;;;;1.88;0.80;;;;;;;11.18;68.02;98147.81;4971785;28;20125;-80
2023/01/08 15:26:32;;;;;;;2.03;0.57;;;;;;;11.10;68.32;98141.53;4971410;28;20051;-79
2023/01/08 15:29:03;;;;;;;1.17;0.75;;;;;;;11.00;68.34;98147.59;4972130;28;20058;-79
2023/01/08 15:31:43;;;;;;;3.50;0.65;;;;;;;10.94;68.53;98140.19;4971669;28;20055;-80
2023/01/08 15:34:09;;;;;;;4.18;1.10;;;;;;;10.88;69.00;98136.28;4971850;28;20105;-79
2023/01/08 15:36:36;;;;;;;3.05;1.02;;;;;;;10.82;68.97;98137.66;4971612;28;20055;-80
2023/01/08 15:39:05;;;;;;;2.58;0.90;;;;;;;10.74;68.96;98137.47;4971531;28;20082;-80
2023/01/08 15:44:21;;;;;;;2.35;0.90;;;;;;;10.64;69.34;98131.28;4972227;28;20411;-79
2023/01/08 15:46:48;;;;;;;2.67;1.25;;;;;;;10.57;69.31;98133.59;4974964;28;20293;-79
2023/01/08 15:49:14;;;;;;;1.55;1.02;;;;;;;10.51;69.65;98131.50;4975115;28;20077;-81
2023/01/08 15:51:47;;;;;;;2.40;1.00;;;;;;;10.43;68.91;98126.81;4974855;28;20055;-80
2023/01/08 15:54:14;;;;;;;4.15;1.20;;;;;;;10.38;69.95;98121.09;4975376;28;20062;-80
2023/01/08 15:56:41;;;;;;;2.33;1.30;;;;;;;10.34;69.92;98123.16;4974750;28;20055;-79
2023/01/08 15:59:08;;;;;;;3.17;1.42;;;;;;;10.28;70.23;98124.50;4954014;28;20050;-79
2023/01/08 16:01:34;;;;;;;4.05;1.40;;;;;;;10.23;70.22;98128.47;4974315;28;20515;-80
2023/01/08 16:04:01;;;;;;;1.65;1.00;;;;;;;10.19;70.41;98130.50;4974424;28;20050;-80
2023/01/08 16:06:27;;;;;;;2.50;1.10;;;;;;;10.15;70.48;98129.09;4974639;28;20065;-79
2023/01/08 16:08:56;;;;;;;3.92;1.50;;;;;;;10.10;70.50;98126.00;4974259;28;20051;-80
2023/01/08 16:11:23;;;;;;;3.10;1.10;;;;;;;10.06;70.62;98121.97;4973325;28;20093;-80
2023/01/08 16:13:49;;;;;;;2.97;1.15;;;;;;;10.01;70.80;98120.53;4973348;28;20144;-80
2023/01/08 16:16:16;;;;;;;2.92;1.20;;;;;;;9.99;71.05;98117.19;4974485;28;20070;-80
2023/01/08 16:18:43;;;;;;;4.05;1.20;;;;;;;9.96;71.06;98122.72;4974093;28;20102;-80
2023/01/08 16:21:10;;;;;;;4.30;1.20;;;;;;;9.95;71.06;98122.81;4973929;28;20517;-80
2023/01/08 16:23:39;;;;;;;3.53;1.50;;;;;;;9.93;71.28;98130.00;4973542;28;20058;-80
2023/01/08 16:26:05;;;;;;;2.92;1.40;;;;;;;9.91;71.36;98124.88;4974093;28;20492;-80
2023/01/08 16:28:32;;;;;;;2.60;1.27;;;;;;;9.89;71.70;98132.03;4974137;28;20054;-80
2023/01/08 16:30:58;;;;;;;1.95;1.15;;;;;;;9.89;72.00;98127.63;4974300;28;20054;-80
2023/01/08 16:33:25;;;;;;;3.85;1.20;;;;;;;9.89;72.15;98121.53;4974301;28;20051;-80
2023/01/08 16:36:00;;;;;;;3.35;1.20;;;;;;;9.88;71.55;98125.94;4957200;28;20106;-80
2023/01/08 16:38:28;;;;;;;2.85;1.10;;;;;;;9.94;72.32;98126.44;4974249;28;20064;-80
2023/01/08 16:40:58;;;;;;;2.00;1.00;;;;;;;9.97;72.35;98120.91;4974443;28;20055;-79
2023/01/08 16:43:26;;;;;;;3.60;1.17;;;;;;;9.99;72.21;98117.19;4974202;28;20055;-80
2023/01/08 16:45:53;;;;;;;4.55;1.33;;;;;;;10.02;71.87;98116.13;4972512;28;20137;-80
2023/01/08 16:48:21;;;;;;;5.53;1.15;;;;;;;10.03;71.65;98110.72;4973832;28;20059;-79
2023/01/08 16:50:48;;;;;;;4.47;1.35;;;;;;;10.02;71.59;98113.50;4974158;28;20058;-80
2023/01/08 16:53:16;;;;;;;1.80;1.25;;;;;;;10.01;71.57;98115.28;4973826;28;20459;-80
2023/01/08 16:55:43;;;;;;;2.42;1.17;;;;;;;10.00;71.69;98112.78;4972636;28;20065;-81
2023/01/08 16:58:09;;;;;;;2.13;1.08;;;;;;;9.99;71.92;98117.19;4973567;28;20066;-80
2023/01/08 17:00:37;;;;;;;2.25;1.40;;;;;;;9.97;71.93;98111.22;4973401;28;20072;-80
2023/01/08 17:03:04;;;;;;;2.60;1.60;;;;;;;9.97;71.94;98110.38;4973911;28;20117;-80
2023/01/08 17:05:31;;;;;;;2.47;1.25;;;;;;;9.96;71.85;98106.09;4969881;28;20495;-79
2023/01/08 17:07:58;;;;;;;2.10;1.05;;;;;;;9.94;71.65;98103.59;4973416;28;20323;-80
2023/01/08 17:10:25;;;;;;;2.70;1.08;;;;;;;9.93;71.81;98101.94;4973467;28;20050;-79
2023/01/08 17:12:51;;;;;;;3.22;1.13;;;;;;;9.91;71.80;98101.22;4973906;28;20053;-80
2023/01/08 17:15:18;;;;;;;2.90;1.75;;;;;;;9.88;71.64;98091.78;4972064;28;20086;-79
2023/01/08 17:17:44;;;;;;;2.13;1.35;;;;;;;9.86;71.94;98098.97;4972140;28;20065;-79
2023/01/08 17:20:11;;;;;;;2.88;1.30;;;;;;;9.84;72.16;98098.25;4973397;28;20050;-79
2023/01/08 17:22:37;;;;;;;2.45;1.30;;;;;;;9.84;71.92;98100.03;4973413;28;20055;-80
2023/01/08 17:25:04;;;;;;;3.38;1.75;;;;;;;9.81;72.28;98095.88;4973160;28;20502;-78
2023/01/08 17:27:34;;;;;;;2.75;1.67;;;;;;;9.80;72.02;98090.75;4970618;28;20051;-80
2023/01/08 17:30:00;;;;;;;2.25;1.40;;;;;;;9.80;71.93;98088.97;4973022;28;20162;-80
2023/01/08 17:32:30;;;;;;;3.92;1.30;;;;;;;9.75;71.80;98089.31;4972931;28;20082;-80
2023/01/08 17:34:57;;;;;;;2.78;1.30;;;;;;;9.76;71.86;98087.53;4965663;28;20134;-80
2023/01/08 17:37:23;;;;;;;4.22;1.70;;;;;;;9.71;71.72;98087.88;4973325;28;20046;-83
2023/01/08 17:39:50;;;;;;;1.60;1.33;;;;;;;9.66;71.95;98074.28;4973494;28;20074;-81
2023/01/08 17:42:26;;;;;;;3.40;1.40;;;;;;;9.64;71.99;98073.56;4973031;28;20069;-81
2023/01/08 17:44:56;;;;;;;3.45;1.60;;;;;;;9.60;72.34;98069.53;4972181;28;20389;-82
2023/01/08 17:47:24;;;;;;;2.35;1.50;;;;;;;9.57;72.62;98072.41;4954621;28;20054;-80
2023/01/08 17:49:52;;;;;;;4.47;1.55;;;;;;;9.56;72.66;98070.72;4971684;28;20400;-80
2023/01/08 17:52:20;;;;;;;2.63;1.80;;;;;;;9.55;72.68;98069.06;4971790;28;20059;-81
2023/01/08 17:54:50;;;;;;;3.30;1.75;;;;;;;9.52;72.81;98063.09;4971597;28;20051;-80
2023/01/08 17:57:19;;;;;;;5.15;1.63;;;;;;;9.52;72.78;98071.00;4972056;28;20059;-80